Time;durP1;ratioP1;P1;durP2;ratioP2;P2;SDS_P1;SDS_P2;PMS_P1;PMS_P2;Temp;Humidity;BMP_temperature;BMP_pressure;BME280_temperature;BME280_humidity;BME280_pressure;Samples;Min_cycle;Max_cycle;Signal;HPM_P1;HPM_P2
2022/06/26 00:02:04;;;;;;;5.35;2.47;;;;;;;18.15;91.23;94583.34;5091247;28;20210;-81
2022/06/26 00:04:33;;;;;;;5.95;2.92;;;;;;;18.12;90.49;94584.09;5091427;28;20256;-83
2022/06/26 00:07:00;;;;;;;7.63;3.03;;;;;;;18.06;89.54;94591.06;5091491;28;20226;-83
2022/06/26 00:09:27;;;;;;;5.40;2.35;;;;;;;18.05;90.02;94592.22;5090500;28;20309;-82
2022/06/26 00:11:54;;;;;;;5.30;2.33;;;;;;;18.13;89.91;94582.94;5090830;28;20234;-82
2022/06/26 00:14:21;;;;;;;6.15;2.88;;;;;;;18.13;89.83;94577.44;5090526;28;20308;-82
2022/06/26 00:16:48;;;;;;;5.03;2.53;;;;;;;18.11;89.47;94593.50;5090126;28;20714;-83
2022/06/26 00:19:15;;;;;;;5.40;2.13;;;;;;;18.15;89.80;94583.34;5090179;28;20279;-83
2022/06/26 00:21:43;;;;;;;3.33;2.22;;;;;;;18.07;89.54;94590.69;5090395;28;20224;-83
2022/06/26 00:24:10;;;;;;;7.20;2.47;;;;;;;17.94;89.69;94594.88;5089891;28;20198;-83
2022/06/26 00:26:37;;;;;;;4.68;2.00;;;;;;;17.97;89.26;94598.81;5089713;28;20664;-82
2022/06/26 00:29:03;;;;;;;3.42;1.70;;;;;;;18.02;88.74;94596.53;5089803;28;20202;-82
2022/06/26 00:31:30;;;;;;;3.90;1.95;;;;;;;18.10;88.17;94586.44;5090142;28;20234;-82
2022/06/26 00:33:57;;;;;;;2.50;1.73;;;;;;;18.19;88.27;94578.66;5090587;28;20207;-82
2022/06/26 00:36:24;;;;;;;3.65;2.08;;;;;;;18.29;88.52;94580.75;5090174;28;20218;-82
2022/06/26 00:38:52;;;;;;;7.82;1.92;;;;;;;18.30;88.70;94579.59;5090056;28;20222;-82
2022/06/26 00:41:19;;;;;;;9.18;2.33;;;;;;;18.48;88.92;94580.50;5090447;28;20226;-82
2022/06/26 00:43:46;;;;;;;6.95;1.83;;;;;;;18.35;89.33;94587.44;5090838;28;20226;-82
2022/06/26 00:46:13;;;;;;;3.58;2.10;;;;;;;18.22;90.16;94583.41;5090728;28;20194;-82
2022/06/26 00:48:40;;;;;;;4.72;2.50;;;;;;;18.26;89.49;94578.75;5091339;28;20218;-80
2022/06/26 00:51:07;;;;;;;8.95;2.25;;;;;;;18.10;90.03;94580.94;5091180;28;20246;-82
2022/06/26 00:53:34;;;;;;;7.90;2.10;;;;;;;17.99;91.40;94580.03;5090609;28;20202;-82
2022/06/26 00:56:02;;;;;;;5.97;2.00;;;;;;;18.07;90.94;94578.94;5090332;28;20198;-81
2022/06/26 00:58:29;;;;;;;3.42;1.80;;;;;;;18.10;89.64;94580.94;5090298;28;20679;-82
2022/06/26 01:00:56;;;;;;;5.63;2.00;;;;;;;18.10;89.58;94580.94;5090580;28;20740;-82
2022/06/26 01:03:23;;;;;;;3.78;2.00;;;;;;;18.17;88.89;94581.03;5090234;28;20308;-82
2022/06/26 01:05:50;;;;;;;4.57;2.05;;;;;;;18.14;89.01;94587.25;5090698;28;20256;-82
2022/06/26 01:08:17;;;;;;;8.18;1.85;;;;;;;18.17;90.00;94586.50;5090763;28;20276;-81
2022/06/26 01:10:44;;;;;;;3.45;1.73;;;;;;;18.19;89.18;94581.41;5093958;28;20280;-81
2022/06/26 01:13:12;;;;;;;4.18;2.28;;;;;;;18.21;88.84;94587.31;5094915;28;20510;-82
2022/06/26 01:15:39;;;;;;;6.90;2.25;;;;;;;18.14;89.34;94587.25;5094573;28;20218;-81
2022/06/26 01:18:06;;;;;;;4.07;1.90;;;;;;;18.16;90.08;94584.94;5094285;28;20222;-81
2022/06/26 01:20:33;;;;;;;9.00;1.77;;;;;;;18.17;90.35;94585.72;5094137;28;20271;-82
2022/06/26 01:23:05;;;;;;;4.57;2.13;;;;;;;18.18;90.96;94598.28;5094467;28;20510;-81
2022/06/26 01:25:42;;;;;;;2.53;1.58;;;;;;;18.16;89.20;94589.63;5093784;28;20234;-82
2022/06/26 01:28:09;;;;;;;7.28;2.00;;;;;;;18.09;89.30;94587.59;5094277;28;20202;-81
2022/06/26 01:30:36;;;;;;;5.65;2.08;;;;;;;17.92;89.68;94596.41;5093626;28;20325;-81
2022/06/26 01:33:03;;;;;;;8.02;2.05;;;;;;;17.89;89.27;94594.44;5093604;28;20731;-81
2022/06/26 01:35:30;;;;;;;3.20;2.05;;;;;;;17.89;89.52;94586.22;5094138;28;20218;-81
2022/06/26 01:37:56;;;;;;;3.17;1.88;;;;;;;17.87;90.03;94594.00;5093851;28;20198;-81
2022/06/26 01:40:26;;;;;;;4.05;2.28;;;;;;;17.86;89.91;94589.69;5094038;28;20214;-81
2022/06/26 01:42:53;;;;;;;2.28;1.70;;;;;;;17.98;89.56;94600.41;5094165;28;20218;-81
2022/06/26 01:45:19;;;;;;;8.00;2.10;;;;;;;18.03;89.41;94597.31;5094079;28;20190;-81
2022/06/26 01:47:46;;;;;;;1.90;1.50;;;;;;;17.85;89.99;94593.59;5093975;28;20283;-81
2022/06/26 01:50:13;;;;;;;4.70;1.85;;;;;;;17.81;89.92;94600.97;5093293;28;20289;-81
2022/06/26 01:52:39;;;;;;;3.78;1.85;;;;;;;17.93;90.08;94608.94;5093820;28;20603;-81
2022/06/26 01:55:07;;;;;;;2.60;1.60;;;;;;;17.99;89.15;94601.97;5093545;28;20607;-81
2022/06/26 01:57:35;;;;;;;3.10;1.70;;;;;;;17.97;88.99;94609.78;5093085;28;20705;-81
2022/06/26 02:00:02;;;;;;;2.88;1.50;;;;;;;18.03;88.86;94608.28;5093397;28;20218;-81
2022/06/26 02:02:29;;;;;;;2.78;1.77;;;;;;;18.17;88.28;94613.94;5093224;28;20229;-81
2022/06/26 02:04:55;;;;;;;3.20;1.65;;;;;;;18.24;88.41;94618.69;5093279;28;20198;-80
2022/06/26 02:07:22;;;;;;;3.05;1.35;;;;;;;18.32;88.38;94618.38;5093202;28;20590;-81
2022/06/26 02:15:19;;;;;;;4.95;1.60;;;;;;;18.33;86.63;94628.19;5093610;28;20229;-80
2022/06/26 02:17:46;;;;;;;3.92;1.60;;;;;;;18.41;86.56;94627.09;5093343;28;20315;-80
2022/06/26 02:20:13;;;;;;;4.88;2.13;;;;;;;18.38;86.99;94624.31;5092633;28;20218;-80
2022/06/26 02:22:40;;;;;;;6.30;1.80;;;;;;;18.21;88.08;94620.22;5093219;28;20206;-80
2022/06/26 02:25:08;;;;;;;4.05;1.63;;;;;;;18.15;88.88;94621.75;5092709;28;20621;-79
2022/06/26 02:27:36;;;;;;;2.47;1.25;;;;;;;18.21;88.87;94620.22;5092469;28;20223;-79
2022/06/26 02:30:03;;;;;;;2.90;2.13;;;;;;;18.20;89.06;94629.59;5092939;28;20252;-78
2022/06/26 02:32:30;;;;;;;4.20;1.65;;;;;;;18.24;88.52;94619.47;5092756;28;20233;-78
2022/06/26 02:34:57;;;;;;;8.20;1.98;;;;;;;18.15;88.80;94621.75;5092769;28;20226;-78
2022/06/26 02:37:24;;;;;;;3.38;1.42;;;;;;;18.11;89.48;94615.41;5092392;28;20850;-78
2022/06/26 02:39:52;;;;;;;3.22;1.65;;;;;;;18.02;89.48;94620.41;5092716;28;20245;-81
2022/06/26 02:42:19;;;;;;;2.50;1.88;;;;;;;18.03;89.46;94622.00;5092644;28;20669;-81
2022/06/26 02:44:48;;;;;;;3.50;1.55;;;;;;;17.96;89.74;94619.16;5092671;28;20652;-81
2022/06/26 02:47:14;;;;;;;1.45;0.95;;;;;;;17.83;89.89;94626.06;5092632;28;20219;-80
2022/06/26 02:49:41;;;;;;;2.67;1.83;;;;;;;17.63;90.61;94623.47;5092514;28;20198;-80
2022/06/26 02:52:08;;;;;;;2.67;1.60;;;;;;;17.52;90.83;94633.47;5092200;28;20281;-80
2022/06/26 02:54:35;;;;;;;4.88;1.70;;;;;;;17.41;90.93;94636.06;5092489;28;20730;-80
2022/06/26 02:57:02;;;;;;;3.42;1.20;;;;;;;17.49;90.36;94645.19;5092519;28;20206;-79
2022/06/26 02:59:29;;;;;;;2.20;1.35;;;;;;;17.65;90.68;94632.09;5091732;28;20214;-79
2022/06/26 03:01:58;;;;;;;2.85;1.55;;;;;;;17.62;90.17;94643.78;5092495;28;20275;-79
2022/06/26 03:04:25;;;;;;;3.45;1.52;;;;;;;17.51;89.56;94634.63;5091722;28;20249;-79
2022/06/26 03:06:52;;;;;;;2.38;1.42;;;;;;;17.51;89.18;94648.31;5091904;28;20258;-79
2022/06/26 03:09:19;;;;;;;3.03;1.25;;;;;;;17.80;89.15;94638.56;5092382;28;20217;-78
2022/06/26 03:11:46;;;;;;;1.85;1.30;;;;;;;17.91;89.21;94635.94;5091901;28;20234;-78
2022/06/26 03:14:13;;;;;;;1.50;1.05;;;;;;;18.00;89.14;94636.44;5092476;28;20222;-78
2022/06/26 03:16:39;;;;;;;1.50;1.30;;;;;;;18.13;88.34;94646.00;5091798;28;20708;-78
2022/06/26 03:19:08;;;;;;;2.47;1.10;;;;;;;18.18;88.21;94645.63;5092399;28;20202;-78
2022/06/26 03:21:34;;;;;;;4.38;1.42;;;;;;;18.14;88.00;94653.06;5092015;28;20225;-78
2022/06/26 03:24:05;;;;;;;2.55;1.63;;;;;;;18.22;87.18;94654.69;5092189;28;20203;-78
2022/06/26 03:26:32;;;;;;;2.92;2.10;;;;;;;17.92;90.38;94668.44;5091437;28;20238;-78
2022/06/26 03:29:00;;;;;;;5.22;2.30;;;;;;;17.75;92.32;94658.88;5091725;28;20665;-78
2022/06/26 03:31:28;;;;;;;5.38;3.20;;;;;;;17.63;93.83;94656.34;5091520;28;20291;-78
2022/06/26 03:33:55;;;;;;;6.68;3.15;;;;;;;17.64;94.15;94657.91;5090328;28;20773;-78
2022/06/26 03:36:25;;;;;;;5.28;2.90;;;;;;;17.62;94.32;94662.97;5091639;28;20214;-78
2022/06/26 03:38:52;;;;;;;6.03;3.13;;;;;;;17.59;95.14;94671.94;5091854;28;20362;-78
2022/06/26 03:41:19;;;;;;;6.70;3.28;;;;;;;17.54;95.83;94669.50;5092096;28;20198;-78
2022/06/26 03:43:46;;;;;;;5.95;3.08;;;;;;;17.64;95.86;94668.88;5091794;28;20230;-78
2022/06/26 03:46:13;;;;;;;4.35;2.78;;;;;;;17.82;95.82;94657.38;5091716;28;20202;-78
2022/06/26 03:48:41;;;;;;;7.03;2.72;;;;;;;18.05;95.18;94656.06;5091438;28;20248;-78
2022/06/26 03:51:08;;;;;;;10.50;2.80;;;;;;;18.25;93.63;94656.69;5091674;28;20355;-78
2022/06/26 03:53:37;;;;;;;5.07;3.50;;;;;;;18.38;92.07;94660.75;5091374;28;20258;-78
2022/06/26 03:56:04;;;;;;;4.88;3.03;;;;;;;18.49;91.65;94666.34;5091275;28;20218;-78
2022/06/26 03:58:32;;;;;;;4.18;2.55;;;;;;;18.54;90.96;94670.72;5091378;28;20279;-78
2022/06/26 04:00:59;;;;;;;6.05;2.85;;;;;;;18.39;90.90;94676.06;5070919;28;20207;-78
2022/06/26 04:03:25;;;;;;;5.53;2.92;;;;;;;18.37;91.17;94672.91;5084977;28;20623;-78
2022/06/26 04:05:52;;;;;;;8.95;4.10;;;;;;;18.41;90.84;94686.66;5090655;28;20772;-78
2022/06/26 04:08:20;;;;;;;7.05;4.03;;;;;;;18.23;91.79;94678.22;5090907;28;20627;-78
2022/06/26 04:10:48;;;;;;;6.60;2.95;;;;;;;18.35;91.87;94680.69;5090912;28;20261;-78
2022/06/26 04:13:15;;;;;;;5.63;2.55;;;;;;;18.54;91.54;94676.19;5091674;28;20218;-78
2022/06/26 04:15:42;;;;;;;5.05;2.90;;;;;;;18.63;90.14;94668.47;5091431;28;20287;-78
2022/06/26 04:18:10;;;;;;;3.95;2.50;;;;;;;18.71;90.18;94681.13;5091531;28;20248;-78
2022/06/26 04:20:37;;;;;;;4.25;2.83;;;;;;;18.68;89.86;94676.38;5091367;28;20271;-78
2022/06/26 04:23:05;;;;;;;7.00;3.63;;;;;;;18.66;89.85;94674.00;5091495;28;20198;-78
2022/06/26 04:25:34;;;;;;;9.38;3.00;;;;;;;18.59;90.78;94667.63;5090861;28;20238;-78
2022/06/26 04:28:03;;;;;;;6.32;3.25;;;;;;;18.84;90.64;94668.69;5089606;28;20777;-78
2022/06/26 04:30:30;;;;;;;11.02;3.85;;;;;;;19.24;89.50;94669.78;5079855;28;20626;-78
2022/06/26 04:32:57;;;;;;;6.45;3.65;;;;;;;19.30;87.12;94673.72;5090714;28;20234;-78
2022/06/26 04:35:24;;;;;;;4.43;2.95;;;;;;;19.54;85.29;94656.66;5091027;28;20218;-78
2022/06/26 04:37:51;;;;;;;5.65;3.38;;;;;;;19.88;84.75;94655.25;5090354;28;20271;-78
2022/06/26 04:40:18;;;;;;;5.88;3.67;;;;;;;20.17;83.59;94660.88;5091147;28;20251;-78
2022/06/26 04:42:45;;;;;;;5.35;2.83;;;;;;;20.24;82.99;94660.88;5090876;28;20222;-78
2022/06/26 04:45:14;;;;;;;7.10;3.17;;;;;;;20.38;81.58;94666.47;5094054;28;20195;-78
2022/06/26 04:47:41;;;;;;;7.10;2.90;;;;;;;20.71;80.75;94667.34;5094830;28;20270;-78
2022/06/26 04:50:09;;;;;;;6.85;3.03;;;;;;;20.96;79.14;94661.84;5095065;28;20202;-78
2022/06/26 04:52:36;;;;;;;5.95;3.15;;;;;;;20.95;78.59;94661.06;5094693;28;20573;-78
2022/06/26 04:55:03;;;;;;;6.10;3.72;;;;;;;20.92;78.57;94667.34;5094233;28;20665;-78
2022/06/26 04:57:30;;;;;;;3.55;2.78;;;;;;;21.04;78.89;94663.44;5094729;28;20221;-78
2022/06/26 04:59:57;;;;;;;6.60;3.08;;;;;;;21.22;78.76;94673.28;5094807;28;20202;-78
2022/06/26 05:02:25;;;;;;;6.10;3.58;;;;;;;21.27;77.86;94672.91;5094317;28;20700;-78
2022/06/26 05:04:52;;;;;;;11.25;2.90;;;;;;;;;;5094454;28;20222;-78
2022/06/26 05:07:19;;;;;;;7.82;2.65;;;;;;;21.44;76.80;94681.56;5093885;28;20271;-77
2022/06/26 05:09:45;;;;;;;4.93;2.90;;;;;;;21.78;75.22;94690.94;5094483;28;20218;-78
2022/06/26 05:12:12;;;;;;;3.25;2.00;;;;;;;21.98;73.47;94681.03;5094265;28;20226;-77
2022/06/26 05:14:39;;;;;;;3.80;2.30;;;;;;;22.13;72.35;94686.53;5094229;28;20272;-78
2022/06/26 05:17:06;;;;;;;3.78;2.78;;;;;;;22.83;71.63;94690.13;5094140;28;20206;-77
2022/06/26 05:19:34;;;;;;;5.68;3.45;;;;;;;23.68;67.56;94683.97;5094256;28;20230;-77
2022/06/26 05:22:02;;;;;;;6.20;3.83;;;;;;;23.44;69.13;94690.47;5081004;28;20206;-77
2022/06/26 05:24:30;;;;;;;6.28;3.03;;;;;;;23.45;70.24;94689.28;5093530;28;20219;-77
2022/06/26 05:26:58;;;;;;;5.82;3.72;;;;;;;24.05;68.84;94695.03;5093903;28;20305;-77
2022/06/26 05:29:25;;;;;;;6.18;3.65;;;;;;;25.39;64.50;94694.47;5093842;28;20223;-77
2022/06/26 05:31:52;;;;;;;4.63;3.63;;;;;;;25.55;62.61;94693.03;5093928;28;20218;-77
2022/06/26 05:34:19;;;;;;;5.35;2.75;;;;;;;24.83;62.46;94703.59;5093308;28;20720;-77
2022/06/26 05:36:47;;;;;;;5.60;4.30;;;;;;;25.41;62.62;94705.94;5093727;28;20263;-75
2022/06/26 05:39:14;;;;;;;5.57;4.13;;;;;;;26.12;59.76;94701.13;5093160;28;20202;-78
2022/06/26 05:41:41;;;;;;;6.38;4.82;;;;;;;27.45;55.80;94698.72;5093574;28;20219;-76
2022/06/26 05:44:08;;;;;;;7.50;4.28;;;;;;;28.12;54.00;94701.78;5080970;28;20211;-78
2022/06/26 05:46:35;;;;;;;5.88;3.80;;;;;;;29.33;51.21;94695.50;5093576;28;20264;-75
2022/06/26 05:49:02;;;;;;;6.55;4.05;;;;;;;30.69;46.39;94690.47;5093392;28;20255;-76
2022/06/26 05:51:28;;;;;;;5.30;3.92;;;;;;;32.20;43.86;94692.50;5093297;28;20243;-78
2022/06/26 05:53:57;;;;;;;6.25;4.57;;;;;;;32.95;41.85;94701.19;5093275;28;20218;-78
2022/06/26 05:56:24;;;;;;;7.50;4.65;;;;;;;34.31;39.37;94692.63;5092865;28;20296;-78
2022/06/26 05:58:50;;;;;;;7.63;4.18;;;;;;;34.13;38.20;94693.53;5093216;28;20610;-75
2022/06/26 06:01:17;;;;;;;5.63;3.95;;;;;;;33.76;38.99;94707.78;5093001;28;20280;-76
2022/06/26 06:03:44;;;;;;;7.32;4.20;;;;;;;31.88;42.20;94709.84;5093079;28;20635;-78
2022/06/26 06:06:11;;;;;;;4.82;3.35;;;;;;;29.76;46.63;94716.50;5092513;28;20198;-78
2022/06/26 06:08:38;;;;;;;8.23;3.78;;;;;;;28.20;50.01;94731.03;5092685;28;20315;-76
2022/06/26 06:11:06;;;;;;;9.23;3.90;;;;;;;27.94;51.18;94723.75;5092505;28;20251;-78
2022/06/26 06:13:32;;;;;;;7.03;4.40;;;;;;;28.76;49.53;94716.75;5092731;28;20660;-78
2022/06/26 06:15:59;;;;;;;8.25;4.05;;;;;;;31.00;44.65;94710.09;5093205;28;20614;-78
2022/06/26 06:18:26;;;;;;;6.43;4.63;;;;;;;31.81;43.13;94710.16;5093105;28;20218;-77
2022/06/26 06:20:53;;;;;;;6.30;4.65;;;;;;;30.16;45.60;94720.34;5092582;28;20275;-77
2022/06/26 06:23:20;;;;;;;6.75;4.75;;;;;;;27.99;50.62;94731.59;5092563;28;20291;-75
2022/06/26 06:25:47;;;;;;;6.72;4.70;;;;;;;29.64;46.96;94720.88;5092130;28;20296;-77
2022/06/26 06:28:15;;;;;;;5.32;4.05;;;;;;;30.69;45.80;94712.06;5092961;28;20218;-78
2022/06/26 06:30:43;;;;;;;6.38;4.03;;;;;;;31.24;44.31;94718.03;5092855;28;20604;-78
2022/06/26 06:33:10;;;;;;;5.30;3.90;;;;;;;30.73;44.33;94723.94;5092584;28;20226;-78
2022/06/26 06:35:37;;;;;;;8.85;4.20;;;;;;;30.52;45.38;94722.66;5092626;28;20206;-78
2022/06/26 06:38:04;;;;;;;7.85;4.22;;;;;;;30.43;46.24;94721.81;5092099;28;20226;-77
2022/06/26 06:40:30;;;;;;;7.35;3.80;;;;;;;31.39;43.35;94713.44;5091353;28;20633;-78
2022/06/26 06:42:57;;;;;;;9.10;3.97;;;;;;;31.04;43.86;94719.13;5092137;28;20210;-77
2022/06/26 06:45:26;;;;;;;5.70;3.25;;;;;;;32.38;41.17;94708.56;5092504;28;20195;-78
2022/06/26 06:47:52;;;;;;;4.93;3.33;;;;;;;34.27;37.49;94692.84;5092217;28;20693;-78
2022/06/26 06:50:19;;;;;;;5.15;2.90;;;;;;;35.01;35.94;94701.41;5092275;28;20198;-79
2022/06/26 06:52:46;;;;;;;5.20;2.90;;;;;;;34.70;35.62;94707.50;5090493;28;20241;-77
2022/06/26 06:55:13;;;;;;;7.57;2.90;;;;;;;34.34;36.76;94712.16;5092116;28;20223;-78
2022/06/26 06:57:40;;;;;;;4.75;2.53;;;;;;;33.99;37.45;94711.13;5092248;28;20225;-77
2022/06/26 07:00:08;;;;;;;4.88;2.80;;;;;;;33.93;36.36;94704.59;5092065;28;20214;-77
2022/06/26 07:02:38;;;;;;;4.00;2.50;;;;;;;34.48;36.06;94707.81;5079514;28;20213;-78
2022/06/26 07:05:06;;;;;;;6.43;2.50;;;;;;;34.09;37.13;94698.53;5092159;28;20275;-79
2022/06/26 07:07:33;;;;;;;5.10;2.70;;;;;;;33.47;37.59;94707.63;5091428;28;20218;-79
2022/06/26 07:10:00;;;;;;;5.65;2.88;;;;;;;32.61;39.00;94715.56;5091958;28;20194;-78
2022/06/26 07:12:27;;;;;;;8.55;2.85;;;;;;;31.98;40.21;94715.00;5090954;28;20275;-79
2022/06/26 07:14:55;;;;;;;4.35;2.45;;;;;;;33.01;40.04;94710.53;5091644;28;20222;-78
2022/06/26 07:17:22;;;;;;;5.57;2.60;;;;;;;33.04;39.50;94703.97;5092152;28;20260;-79
2022/06/26 07:19:51;;;;;;;4.30;2.30;;;;;;;33.10;38.29;94709.72;5092022;28;20226;-79
2022/06/26 07:22:18;;;;;;;3.88;2.80;;;;;;;32.32;39.36;94711.19;5092052;28;20213;-79
2022/06/26 07:24:44;;;;;;;7.28;2.65;;;;;;;32.25;40.49;94711.53;5091428;28;20291;-79
2022/06/26 07:27:11;;;;;;;2.90;2.40;;;;;;;31.63;40.82;94705.25;5091366;28;20222;-78
2022/06/26 07:29:38;;;;;;;3.97;2.05;;;;;;;31.87;39.60;94708.28;5091477;28;20217;-79
2022/06/26 07:32:06;;;;;;;3.40;2.45;;;;;;;31.63;40.51;94714.44;5091401;28;20222;-78
2022/06/26 07:34:33;;;;;;;4.60;2.50;;;;;;;31.05;41.31;94712.28;5091598;28;20568;-79
2022/06/26 07:37:01;;;;;;;2.22;2.00;;;;;;;32.07;39.14;94708.66;5091539;28;20218;-80
2022/06/26 07:39:27;;;;;;;2.85;2.05;;;;;;;32.23;37.58;94713.22;5091282;28;20295;-80
2022/06/26 07:41:54;;;;;;;4.45;2.33;;;;;;;32.44;37.55;94713.06;5090854;28;20202;-79
2022/06/26 07:44:21;;;;;;;5.43;2.20;;;;;;;31.43;40.66;94705.66;5091023;28;20198;-80
2022/06/26 07:46:48;;;;;;;3.47;2.10;;;;;;;30.42;40.50;94709.06;5091201;28;20194;-80
2022/06/26 07:49:14;;;;;;;4.03;2.20;;;;;;;31.32;39.29;94705.28;5090896;28;20207;-79
2022/06/26 07:51:42;;;;;;;3.58;1.80;;;;;;;31.74;37.97;94700.81;5090941;28;20214;-81
2022/06/26 07:54:10;;;;;;;5.65;2.10;;;;;;;32.54;36.83;94705.41;5090824;28;20222;-82
2022/06/26 07:56:38;;;;;;;3.85;2.30;;;;;;;31.75;37.60;94702.38;5087912;28;20222;-81
2022/06/26 07:59:04;;;;;;;4.68;2.30;;;;;;;32.69;37.11;94699.94;5090563;28;20210;-80
2022/06/26 08:01:31;;;;;;;3.38;1.83;;;;;;;32.86;37.18;94697.63;5090686;28;20718;-81
2022/06/26 08:03:58;;;;;;;3.55;1.95;;;;;;;32.33;37.37;94698.72;5090722;28;20268;-81
2022/06/26 08:06:25;;;;;;;4.78;2.10;;;;;;;32.59;37.67;94699.19;5090432;28;20218;-79
2022/06/26 08:08:52;;;;;;;4.70;2.25;;;;;;;33.10;36.52;94690.06;5090552;28;20709;-81
2022/06/26 08:11:20;;;;;;;4.95;2.03;;;;;;;32.20;37.01;94709.31;5090461;28;20681;-80
2022/06/26 08:13:47;;;;;;;5.70;2.10;;;;;;;31.75;37.73;94702.38;5090097;28;20362;-81
2022/06/26 08:16:14;;;;;;;3.72;1.80;;;;;;;31.39;37.14;94696.63;5090941;28;20263;-80
2022/06/26 08:18:41;;;;;;;4.18;1.58;;;;;;;31.46;36.55;94701.94;5091506;28;20221;-81
2022/06/26 08:23:53;;;;;;;4.22;2.20;;;;;;;32.51;37.21;94695.16;5083139;28;20224;-81
2022/06/26 08:26:21;;;;;;;2.80;1.85;;;;;;;30.99;37.73;94702.94;5094227;28;20623;-81
2022/06/26 08:28:48;;;;;;;5.22;2.28;;;;;;;30.09;41.34;94701.00;5095120;28;20296;-81
2022/06/26 08:31:15;;;;;;;5.80;2.08;;;;;;;30.82;40.59;94707.19;5095216;28;20222;-81
2022/06/26 08:33:42;;;;;;;6.22;2.60;;;;;;;31.50;38.08;94690.59;5095295;28;20325;-80
2022/06/26 08:36:09;;;;;;;4.82;2.53;;;;;;;30.55;40.15;94704.22;5094632;28;20222;-79
2022/06/26 08:38:36;;;;;;;3.33;2.40;;;;;;;30.10;42.35;94699.00;5094573;28;20673;-80
2022/06/26 08:41:03;;;;;;;3.58;2.22;;;;;;;30.15;42.18;94702.00;5092976;28;20244;-81
2022/06/26 08:43:31;;;;;;;3.33;2.70;;;;;;;29.58;42.18;94698.31;5084734;28;20202;-81
2022/06/26 08:46:00;;;;;;;5.78;2.65;;;;;;;28.82;42.77;94703.84;5090999;28;20206;-80
2022/06/26 08:48:27;;;;;;;5.60;2.40;;;;;;;28.65;44.73;94711.47;5094767;28;20234;-79
2022/06/26 08:50:55;;;;;;;2.97;2.33;;;;;;;28.40;45.51;94710.63;5094490;28;20230;-81
2022/06/26 08:53:22;;;;;;;5.32;2.65;;;;;;;29.03;43.59;94708.00;5094203;28;20238;-83
2022/06/26 08:55:50;;;;;;;6.13;2.90;;;;;;;29.90;42.58;94702.06;5094148;28;20697;-81
2022/06/26 08:58:17;;;;;;;5.25;2.42;;;;;;;29.00;44.01;94706.88;5094196;28;20663;-81
2022/06/26 09:00:46;;;;;;;3.55;2.63;;;;;;;28.35;45.78;94708.38;5094271;28;20226;-80
2022/06/26 09:03:15;;;;;;;4.65;2.88;;;;;;;27.99;46.79;94709.31;5094482;28;20405;-80
2022/06/26 09:05:42;;;;;;;4.13;2.78;;;;;;;27.45;48.20;94709.06;5093950;28;20297;-79
2022/06/26 09:08:17;;;;;;;6.38;3.05;;;;;;;27.80;48.13;94710.97;5094345;28;20238;-80
2022/06/26 09:10:45;;;;;;;4.30;2.90;;;;;;;27.26;47.30;94702.34;5074036;28;20222;-81
2022/06/26 09:13:12;;;;;;;4.78;2.60;;;;;;;27.35;46.86;94710.06;5087611;28;20265;-79
2022/06/26 09:15:40;;;;;;;8.10;2.72;;;;;;;27.69;47.34;94692.97;5093102;28;20230;-77
2022/06/26 09:18:10;;;;;;;4.18;3.40;;;;;;;28.14;44.91;94693.78;5094294;28;20287;-81
2022/06/26 09:20:49;;;;;;;4.47;2.70;;;;;;;28.49;47.08;94685.66;5093923;28;20226;-82
2022/06/26 09:23:16;;;;;;;3.67;2.53;;;;;;;27.47;46.55;94687.91;5090142;28;20697;-78
2022/06/26 09:25:45;;;;;;;3.95;2.47;;;;;;;28.04;47.81;94688.47;5084048;28;20237;-78
2022/06/26 09:28:14;;;;;;;3.58;2.78;;;;;;;28.56;46.53;94688.28;5093905;28;20234;-79
2022/06/26 09:30:49;;;;;;;4.65;2.75;;;;;;;29.24;44.71;94679.44;5093593;28;20661;-81
2022/06/26 09:33:18;;;;;;;5.40;2.40;;;;;;;29.85;40.63;94683.06;5093564;28;20287;-80
2022/06/26 09:35:45;;;;;;;6.43;2.67;;;;;;;30.22;41.54;94679.38;5093672;28;20222;-80
2022/06/26 09:38:16;;;;;;;3.40;2.75;;;;;;;30.61;41.60;94675.22;5093206;28;20214;-80
2022/06/26 09:40:47;;;;;;;4.35;2.78;;;;;;;28.84;44.83;94679.06;5093533;28;20198;-78
2022/06/26 09:43:17;;;;;;;4.13;2.40;;;;;;;28.34;43.25;94687.28;5092998;28;20202;-79
2022/06/26 09:45:46;;;;;;;3.78;2.25;;;;;;;28.73;43.14;94684.16;5092955;28;20223;-80
2022/06/26 09:48:13;;;;;;;4.88;2.35;;;;;;;28.64;45.15;94687.59;5093065;28;20230;-76
2022/06/26 09:50:42;;;;;;;3.80;2.22;;;;;;;27.68;44.63;94705.34;5092997;28;20198;-81
2022/06/26 09:53:10;;;;;;;4.70;2.30;;;;;;;28.12;42.98;94696.22;5092816;28;20276;-79
2022/06/26 09:55:37;;;;;;;5.15;2.30;;;;;;;27.89;42.29;94696.41;5092951;28;20218;-80
2022/06/26 09:58:05;;;;;;;4.18;1.70;;;;;;;28.15;42.52;94702.91;5092517;28;20252;-79
2022/06/26 10:00:35;;;;;;;2.67;1.75;;;;;;;28.71;40.32;94692.19;5092946;28;20230;-80
2022/06/26 10:08:34;;;;;;;4.47;2.40;;;;;;;27.94;43.08;94695.91;5091960;28;20196;-75
2022/06/26 10:11:02;;;;;;;3.25;2.28;;;;;;;27.33;46.55;94696.63;5092448;28;20219;-78
2022/06/26 10:13:33;;;;;;;2.92;2.15;;;;;;;27.25;47.38;94692.44;5091933;28;20313;-80
2022/06/26 10:16:19;;;;;;;3.53;2.45;;;;;;;28.11;44.91;94689.09;5092536;28;20228;-79
2022/06/26 10:19:02;;;;;;;6.97;2.78;;;;;;;28.84;44.39;94679.06;5091958;28;20229;-80
2022/06/26 10:21:36;;;;;;;3.15;2.42;;;;;;;29.33;40.46;94664.81;5092962;28;20218;-80
2022/06/26 10:24:03;;;;;;;3.28;2.35;;;;;;;29.33;41.69;94659.22;5092806;28;20222;-77
2022/06/26 10:26:30;;;;;;;3.95;2.35;;;;;;;28.74;40.47;94673.78;5092415;28;20646;-79
2022/06/26 10:28:59;;;;;;;4.38;2.10;;;;;;;28.21;43.14;94676.88;5092901;28;20259;-79
2022/06/26 10:31:26;;;;;;;4.35;2.17;;;;;;;28.66;41.60;94662.06;5092381;28;20279;-78
2022/06/26 10:33:53;;;;;;;5.35;2.83;;;;;;;28.56;40.98;94663.19;5092651;28;20271;-78
2022/06/26 10:36:23;;;;;;;4.38;2.10;;;;;;;28.38;41.57;94668.47;5092792;28;20267;-84
2022/06/26 10:38:52;;;;;;;5.57;2.20;;;;;;;28.83;43.36;94658.00;5092324;28;20194;-83
2022/06/26 10:44:11;;;;;;;4.75;2.25;;;;;;;30.20;38.77;94641.97;5092126;28;20323;-81
2022/06/26 10:46:39;;;;;;;4.30;2.60;;;;;;;29.45;40.39;94640.94;5091627;28;20214;-82
2022/06/26 10:49:08;;;;;;;2.03;1.92;;;;;;;29.54;40.54;94646.59;5091601;28;20724;-81
2022/06/26 10:51:39;;;;;;;3.13;2.10;;;;;;;29.72;39.04;94646.00;5092469;28;20301;-80
2022/06/26 10:54:19;;;;;;;3.58;2.30;;;;;;;29.78;38.57;94645.00;5092281;28;20240;-82
2022/06/26 10:56:46;;;;;;;5.03;2.40;;;;;;;30.31;40.31;94637.53;5092431;28;20226;-83
2022/06/26 10:59:17;;;;;;;5.60;2.42;;;;;;;30.01;38.17;94638.22;5091697;28;20305;-80
2022/06/26 11:01:44;;;;;;;3.60;1.92;;;;;;;29.86;37.94;94643.50;5092391;28;20190;-82
2022/06/26 11:04:11;;;;;;;1.98;1.60;;;;;;;30.26;37.17;94640.91;5071791;28;20222;-82
2022/06/26 11:06:40;;;;;;;2.40;1.80;;;;;;;30.34;38.53;94641.44;5085237;28;20610;-81
2022/06/26 11:09:09;;;;;;;3.83;1.83;;;;;;;30.36;36.18;94634.13;5091797;28;20228;-80
2022/06/26 11:11:38;;;;;;;1.90;1.60;;;;;;;29.39;36.28;94632.31;5091920;28;20206;-84
2022/06/26 11:14:07;;;;;;;2.85;1.58;;;;;;;29.39;38.72;94642.72;5091763;28;20233;-80
2022/06/26 11:16:38;;;;;;;2.35;1.48;;;;;;;28.78;39.11;94641.00;5091528;28;20218;-78
2022/06/26 11:19:07;;;;;;;3.70;1.45;;;;;;;28.64;40.98;94637.41;5091578;28;20218;-81
2022/06/26 11:21:34;;;;;;;3.00;1.63;;;;;;;28.61;38.44;94638.31;5091766;28;20198;-82
2022/06/26 11:24:02;;;;;;;3.22;1.60;;;;;;;29.53;38.37;94629.06;5091811;28;20255;-82
2022/06/26 11:26:29;;;;;;;3.22;1.65;;;;;;;30.22;37.68;94637.44;5091200;28;20234;-77
2022/06/26 11:28:59;;;;;;;1.70;1.30;;;;;;;29.22;36.34;94630.88;5091363;28;20214;-80
2022/06/26 11:31:30;;;;;;;2.38;1.42;;;;;;;28.87;37.82;94644.72;5091772;28;20234;-78
2022/06/26 11:34:08;;;;;;;2.65;1.48;;;;;;;29.10;38.72;94640.06;5091279;28;20244;-82
2022/06/26 11:36:35;;;;;;;1.30;1.20;;;;;;;28.87;36.07;94643.94;5091461;28;20634;-82
2022/06/26 11:39:02;;;;;;;2.35;1.83;;;;;;;29.02;40.01;94644.28;5078210;28;20203;-76
2022/06/26 11:41:29;;;;;;;2.00;1.45;;;;;;;29.77;36.40;94625.88;5078863;28;20305;-82
2022/06/26 11:43:58;;;;;;;1.98;1.30;;;;;;;30.23;35.07;94627.84;5091087;28;20229;-82
2022/06/26 11:46:25;;;;;;;2.65;1.60;;;;;;;30.45;34.39;94630.63;5091264;28;20635;-81
2022/06/26 11:48:53;;;;;;;3.58;1.42;;;;;;;30.56;36.10;94624.66;5090765;28;20298;-79
2022/06/26 11:51:22;;;;;;;1.95;1.25;;;;;;;30.48;34.04;94629.69;5090813;28;20225;-81
2022/06/26 11:53:51;;;;;;;3.00;1.80;;;;;;;29.68;37.09;94634.94;5090201;28;20238;-76